sensor_id;sensor_type;location;lat;lon;timestamp;P1;durP1;ratioP1;P2;durP2;ratioP2
43813;SDS011;29669;55.706;37.656;2023-06-14T00:02:05;13.65;;;6.13;;
43813;SDS011;29669;55.706;37.656;2023-06-14T00:04:36;26.23;;;6.30;;
43813;SDS011;29669;55.706;37.656;2023-06-14T00:07:05;16.42;;;6.03;;
43813;SDS011;29669;55.706;37.656;2023-06-14T00:09:36;16.42;;;5.68;;
43813;SDS011;29669;55.706;37.656;2023-06-14T00:12:04;17.38;;;6.40;;
43813;SDS011;29669;55.706;37.656;2023-06-14T00:14:33;13.73;;;5.75;;
43813;SDS011;29669;55.706;37.656;2023-06-14T00:17:01;25.52;;;7.35;;
43813;SDS011;29669;55.706;37.656;2023-06-14T00:19:30;14.88;;;6.75;;
43813;SDS011;29669;55.706;37.656;2023-06-14T00:22:00;15.57;;;6.18;;
43813;SDS011;29669;55.706;37.656;2023-06-14T00:24:28;16.45;;;6.95;;
43813;SDS011;29669;55.706;37.656;2023-06-14T00:27:00;11.00;;;6.45;;
43813;SDS011;29669;55.706;37.656;2023-06-14T00:29:29;19.77;;;6.25;;
43813;SDS011;29669;55.706;37.656;2023-06-14T00:31:57;18.88;;;6.13;;
43813;SDS011;29669;55.706;37.656;2023-06-14T00:34:26;18.10;;;6.32;;
43813;SDS011;29669;55.706;37.656;2023-06-14T00:36:54;8.18;;;5.38;;
43813;SDS011;29669;55.706;37.656;2023-06-14T00:39:22;12.57;;;5.70;;
43813;SDS011;29669;55.706;37.656;2023-06-14T00:41:53;16.65;;;5.85;;
43813;SDS011;29669;55.706;37.656;2023-06-14T00:44:20;9.88;;;5.68;;
43813;SDS011;29669;55.706;37.656;2023-06-14T00:46:49;13.13;;;6.30;;
43813;SDS011;29669;55.706;37.656;2023-06-14T00:49:17;8.80;;;4.93;;
43813;SDS011;29669;55.706;37.656;2023-06-14T00:51:46;15.70;;;5.40;;
43813;SDS011;29669;55.706;37.656;2023-06-14T00:54:15;12.52;;;5.65;;
43813;SDS011;29669;55.706;37.656;2023-06-14T00:56:43;14.70;;;6.30;;
43813;SDS011;29669;55.706;37.656;2023-06-14T00:59:12;13.80;;;5.95;;
43813;SDS011;29669;55.706;37.656;2023-06-14T01:01:40;16.95;;;6.00;;
43813;SDS011;29669;55.706;37.656;2023-06-14T01:04:08;16.25;;;6.88;;
43813;SDS011;29669;55.706;37.656;2023-06-14T01:09:54;13.50;;;4.95;;
43813;SDS011;29669;55.706;37.656;2023-06-14T01:12:40;8.38;;;4.82;;
43813;SDS011;29669;55.706;37.656;2023-06-14T01:15:16;8.73;;;4.72;;
43813;SDS011;29669;55.706;37.656;2023-06-14T01:17:45;11.13;;;5.20;;
43813;SDS011;29669;55.706;37.656;2023-06-14T01:20:14;10.70;;;4.78;;
43813;SDS011;29669;55.706;37.656;2023-06-14T01:22:50;11.73;;;4.45;;
43813;SDS011;29669;55.706;37.656;2023-06-14T01:25:19;11.15;;;4.95;;
43813;SDS011;29669;55.706;37.656;2023-06-14T01:27:53;15.88;;;6.30;;
43813;SDS011;29669;55.706;37.656;2023-06-14T01:30:26;12.18;;;5.00;;
43813;SDS011;29669;55.706;37.656;2023-06-14T01:32:55;9.18;;;5.10;;
43813;SDS011;29669;55.706;37.656;2023-06-14T01:35:25;12.77;;;5.82;;
43813;SDS011;29669;55.706;37.656;2023-06-14T01:37:54;13.25;;;5.32;;
43813;SDS011;29669;55.706;37.656;2023-06-14T01:40:23;13.40;;;6.45;;
43813;SDS011;29669;55.706;37.656;2023-06-14T01:42:52;17.08;;;6.05;;
43813;SDS011;29669;55.706;37.656;2023-06-14T01:45:20;14.02;;;5.65;;
43813;SDS011;29669;55.706;37.656;2023-06-14T01:47:49;13.98;;;7.22;;
43813;SDS011;29669;55.706;37.656;2023-06-14T01:50:18;11.48;;;4.97;;
43813;SDS011;29669;55.706;37.656;2023-06-14T01:52:47;13.45;;;6.15;;
43813;SDS011;29669;55.706;37.656;2023-06-14T01:55:15;9.10;;;6.10;;
43813;SDS011;29669;55.706;37.656;2023-06-14T01:57:46;8.68;;;5.35;;
43813;SDS011;29669;55.706;37.656;2023-06-14T02:00:14;11.90;;;6.10;;
43813;SDS011;29669;55.706;37.656;2023-06-14T02:02:43;10.27;;;5.93;;
43813;SDS011;29669;55.706;37.656;2023-06-14T02:05:12;9.80;;;6.82;;
43813;SDS011;29669;55.706;37.656;2023-06-14T02:07:41;18.25;;;8.32;;
43813;SDS011;29669;55.706;37.656;2023-06-14T02:10:09;20.80;;;8.25;;
43813;SDS011;29669;55.706;37.656;2023-06-14T02:12:37;14.38;;;7.68;;
43813;SDS011;29669;55.706;37.656;2023-06-14T02:15:05;14.05;;;7.07;;
43813;SDS011;29669;55.706;37.656;2023-06-14T02:17:34;12.77;;;6.25;;
43813;SDS011;29669;55.706;37.656;2023-06-14T02:20:06;11.43;;;6.43;;
43813;SDS011;29669;55.706;37.656;2023-06-14T02:22:35;12.18;;;6.47;;
43813;SDS011;29669;55.706;37.656;2023-06-14T02:25:07;15.57;;;6.05;;
43813;SDS011;29669;55.706;37.656;2023-06-14T02:27:35;11.95;;;5.78;;
43813;SDS011;29669;55.706;37.656;2023-06-14T02:30:04;17.30;;;7.35;;
43813;SDS011;29669;55.706;37.656;2023-06-14T02:32:34;13.40;;;6.88;;
43813;SDS011;29669;55.706;37.656;2023-06-14T02:35:04;13.98;;;6.65;;
43813;SDS011;29669;55.706;37.656;2023-06-14T02:37:35;11.38;;;6.85;;
43813;SDS011;29669;55.706;37.656;2023-06-14T02:40:03;14.57;;;6.72;;
43813;SDS011;29669;55.706;37.656;2023-06-14T02:42:34;13.00;;;6.47;;
43813;SDS011;29669;55.706;37.656;2023-06-14T02:45:04;11.32;;;6.18;;
43813;SDS011;29669;55.706;37.656;2023-06-14T02:47:32;15.93;;;6.90;;
43813;SDS011;29669;55.706;37.656;2023-06-14T02:50:00;17.13;;;7.00;;
43813;SDS011;29669;55.706;37.656;2023-06-14T02:52:30;16.20;;;7.20;;
43813;SDS011;29669;55.706;37.656;2023-06-14T02:55:01;16.38;;;6.90;;
43813;SDS011;29669;55.706;37.656;2023-06-14T02:57:31;16.38;;;7.53;;
43813;SDS011;29669;55.706;37.656;2023-06-14T02:59:59;16.48;;;7.88;;
43813;SDS011;29669;55.706;37.656;2023-06-14T03:02:28;16.90;;;6.97;;
43813;SDS011;29669;55.706;37.656;2023-06-14T03:04:55;14.88;;;8.25;;
43813;SDS011;29669;55.706;37.656;2023-06-14T03:07:23;13.45;;;7.72;;
43813;SDS011;29669;55.706;37.656;2023-06-14T03:09:53;13.00;;;7.18;;
43813;SDS011;29669;55.706;37.656;2023-06-14T03:12:21;15.13;;;7.22;;
43813;SDS011;29669;55.706;37.656;2023-06-14T03:14:51;13.75;;;7.38;;
43813;SDS011;29669;55.706;37.656;2023-06-14T03:17:23;13.30;;;7.63;;
43813;SDS011;29669;55.706;37.656;2023-06-14T03:19:52;14.98;;;7.82;;
43813;SDS011;29669;55.706;37.656;2023-06-14T03:22:20;12.70;;;6.93;;
43813;SDS011;29669;55.706;37.656;2023-06-14T03:24:49;14.13;;;7.78;;
43813;SDS011;29669;55.706;37.656;2023-06-14T03:27:17;14.52;;;7.40;;
43813;SDS011;29669;55.706;37.656;2023-06-14T03:29:46;14.63;;;7.68;;
43813;SDS011;29669;55.706;37.656;2023-06-14T03:32:14;16.13;;;8.77;;
43813;SDS011;29669;55.706;37.656;2023-06-14T03:34:43;15.00;;;7.60;;
43813;SDS011;29669;55.706;37.656;2023-06-14T03:37:20;16.23;;;7.55;;
43813;SDS011;29669;55.706;37.656;2023-06-14T03:39:48;13.38;;;7.50;;
43813;SDS011;29669;55.706;37.656;2023-06-14T03:42:20;14.07;;;7.53;;
43813;SDS011;29669;55.706;37.656;2023-06-14T03:44:49;12.45;;;8.07;;
43813;SDS011;29669;55.706;37.656;2023-06-14T03:47:19;14.05;;;7.82;;
43813;SDS011;29669;55.706;37.656;2023-06-14T03:49:47;13.70;;;7.18;;
43813;SDS011;29669;55.706;37.656;2023-06-14T03:52:15;13.90;;;7.90;;
43813;SDS011;29669;55.706;37.656;2023-06-14T03:54:45;17.48;;;7.28;;
43813;SDS011;29669;55.706;37.656;2023-06-14T03:57:18;12.85;;;7.53;;
43813;SDS011;29669;55.706;37.656;2023-06-14T03:59:49;18.83;;;8.50;;
43813;SDS011;29669;55.706;37.656;2023-06-14T04:02:17;14.07;;;7.63;;
43813;SDS011;29669;55.706;37.656;2023-06-14T04:04:45;14.38;;;7.07;;
43813;SDS011;29669;55.706;37.656;2023-06-14T04:07:14;16.02;;;7.85;;
43813;SDS011;29669;55.706;37.656;2023-06-14T04:09:42;21.63;;;8.15;;
43813;SDS011;29669;55.706;37.656;2023-06-14T04:12:10;15.32;;;8.73;;
43813;SDS011;29669;55.706;37.656;2023-06-14T04:14:39;14.43;;;7.10;;
43813;SDS011;29669;55.706;37.656;2023-06-14T04:17:09;13.75;;;7.00;;
43813;SDS011;29669;55.706;37.656;2023-06-14T04:19:38;14.00;;;7.75;;
43813;SDS011;29669;55.706;37.656;2023-06-14T04:22:07;14.40;;;7.35;;
43813;SDS011;29669;55.706;37.656;2023-06-14T04:24:36;17.17;;;8.35;;
43813;SDS011;29669;55.706;37.656;2023-06-14T04:27:04;10.10;;;7.03;;
43813;SDS011;29669;55.706;37.656;2023-06-14T04:29:32;11.98;;;6.53;;
43813;SDS011;29669;55.706;37.656;2023-06-14T04:32:04;18.25;;;8.02;;
43813;SDS011;29669;55.706;37.656;2023-06-14T04:34:33;13.32;;;7.07;;
43813;SDS011;29669;55.706;37.656;2023-06-14T04:37:03;20.98;;;9.07;;
43813;SDS011;29669;55.706;37.656;2023-06-14T04:39:36;13.27;;;6.45;;
43813;SDS011;29669;55.706;37.656;2023-06-14T04:42:04;19.40;;;7.97;;
43813;SDS011;29669;55.706;37.656;2023-06-14T04:44:35;15.57;;;7.18;;
43813;SDS011;29669;55.706;37.656;2023-06-14T04:47:04;15.93;;;8.35;;
43813;SDS011;29669;55.706;37.656;2023-06-14T04:49:34;11.48;;;6.28;;
43813;SDS011;29669;55.706;37.656;2023-06-14T04:52:04;17.05;;;6.68;;
43813;SDS011;29669;55.706;37.656;2023-06-14T04:54:41;16.42;;;8.32;;
43813;SDS011;29669;55.706;37.656;2023-06-14T04:57:10;13.43;;;7.50;;
43813;SDS011;29669;55.706;37.656;2023-06-14T04:59:43;14.07;;;7.72;;
43813;SDS011;29669;55.706;37.656;2023-06-14T05:02:11;13.32;;;7.38;;
43813;SDS011;29669;55.706;37.656;2023-06-14T05:04:39;11.18;;;6.68;;
43813;SDS011;29669;55.706;37.656;2023-06-14T05:07:07;12.25;;;6.25;;
43813;SDS011;29669;55.706;37.656;2023-06-14T05:09:36;16.58;;;7.47;;
43813;SDS011;29669;55.706;37.656;2023-06-14T05:12:05;13.23;;;6.70;;
43813;SDS011;29669;55.706;37.656;2023-06-14T05:14:35;18.42;;;7.55;;
43813;SDS011;29669;55.706;37.656;2023-06-14T05:17:05;14.70;;;6.75;;
43813;SDS011;29669;55.706;37.656;2023-06-14T05:19:33;9.43;;;6.32;;
43813;SDS011;29669;55.706;37.656;2023-06-14T05:22:01;16.70;;;7.38;;
43813;SDS011;29669;55.706;37.656;2023-06-14T05:24:30;13.20;;;5.70;;
43813;SDS011;29669;55.706;37.656;2023-06-14T05:26:59;11.70;;;5.05;;
43813;SDS011;29669;55.706;37.656;2023-06-14T05:29:27;9.20;;;4.75;;
43813;SDS011;29669;55.706;37.656;2023-06-14T05:31:58;8.73;;;4.90;;
43813;SDS011;29669;55.706;37.656;2023-06-14T05:34:26;8.23;;;4.85;;
43813;SDS011;29669;55.706;37.656;2023-06-14T05:36:54;11.50;;;4.68;;
43813;SDS011;29669;55.706;37.656;2023-06-14T05:39:22;9.43;;;4.30;;
43813;SDS011;29669;55.706;37.656;2023-06-14T05:41:51;15.65;;;4.78;;
43813;SDS011;29669;55.706;37.656;2023-06-14T05:44:19;10.68;;;4.45;;
43813;SDS011;29669;55.706;37.656;2023-06-14T05:46:46;9.88;;;4.07;;
43813;SDS011;29669;55.706;37.656;2023-06-14T05:49:14;6.68;;;3.95;;
43813;SDS011;29669;55.706;37.656;2023-06-14T05:51:41;15.18;;;6.57;;
43813;SDS011;29669;55.706;37.656;2023-06-14T05:54:09;12.80;;;4.60;;
43813;SDS011;29669;55.706;37.656;2023-06-14T05:56:37;8.50;;;3.30;;
43813;SDS011;29669;55.706;37.656;2023-06-14T05:59:04;13.52;;;4.30;;
43813;SDS011;29669;55.706;37.656;2023-06-14T06:01:32;12.55;;;4.22;;
43813;SDS011;29669;55.706;37.656;2023-06-14T06:04:01;7.60;;;3.53;;
43813;SDS011;29669;55.706;37.656;2023-06-14T06:06:29;6.72;;;3.53;;
43813;SDS011;29669;55.706;37.656;2023-06-14T06:08:57;11.68;;;4.55;;
43813;SDS011;29669;55.706;37.656;2023-06-14T06:11:25;6.53;;;3.25;;
43813;SDS011;29669;55.706;37.656;2023-06-14T06:13:56;4.13;;;3.00;;
43813;SDS011;29669;55.706;37.656;2023-06-14T06:16:24;9.88;;;3.58;;
43813;SDS011;29669;55.706;37.656;2023-06-14T06:18:52;10.48;;;3.50;;
43813;SDS011;29669;55.706;37.656;2023-06-14T06:21:20;8.55;;;4.30;;
43813;SDS011;29669;55.706;37.656;2023-06-14T06:23:47;4.28;;;2.75;;
43813;SDS011;29669;55.706;37.656;2023-06-14T06:26:15;6.07;;;3.33;;
43813;SDS011;29669;55.706;37.656;2023-06-14T06:28:43;8.45;;;3.38;;
43813;SDS011;29669;55.706;37.656;2023-06-14T06:31:11;4.28;;;2.75;;
43813;SDS011;29669;55.706;37.656;2023-06-14T06:33:39;12.10;;;4.53;;
43813;SDS011;29669;55.706;37.656;2023-06-14T06:36:06;5.72;;;2.83;;
43813;SDS011;29669;55.706;37.656;2023-06-14T06:38:35;7.68;;;3.40;;
43813;SDS011;29669;55.706;37.656;2023-06-14T06:41:03;11.93;;;4.10;;
43813;SDS011;29669;55.706;37.656;2023-06-14T06:43:31;10.93;;;4.28;;
43813;SDS011;29669;55.706;37.656;2023-06-14T06:45:59;14.27;;;4.28;;
43813;SDS011;29669;55.706;37.656;2023-06-14T06:48:27;9.43;;;3.78;;
43813;SDS011;29669;55.706;37.656;2023-06-14T06:50:54;13.45;;;4.20;;
43813;SDS011;29669;55.706;37.656;2023-06-14T06:53:22;7.40;;;3.80;;
43813;SDS011;29669;55.706;37.656;2023-06-14T06:56:05;7.90;;;3.50;;
43813;SDS011;29669;55.706;37.656;2023-06-14T06:58:32;9.85;;;3.53;;
43813;SDS011;29669;55.706;37.656;2023-06-14T07:01:00;11.02;;;4.60;;
43813;SDS011;29669;55.706;37.656;2023-06-14T07:03:28;9.57;;;3.50;;
43813;SDS011;29669;55.706;37.656;2023-06-14T07:05:56;3.75;;;2.55;;
43813;SDS011;29669;55.706;37.656;2023-06-14T07:08:24;4.95;;;3.03;;
43813;SDS011;29669;55.706;37.656;2023-06-14T07:10:51;3.65;;;2.92;;
43813;SDS011;29669;55.706;37.656;2023-06-14T07:13:19;5.45;;;3.10;;
43813;SDS011;29669;55.706;37.656;2023-06-14T07:15:46;9.63;;;3.92;;
43813;SDS011;29669;55.706;37.656;2023-06-14T07:18:14;4.10;;;2.95;;
43813;SDS011;29669;55.706;37.656;2023-06-14T07:20:43;4.82;;;3.10;;
43813;SDS011;29669;55.706;37.656;2023-06-14T07:23:10;6.18;;;3.05;;
43813;SDS011;29669;55.706;37.656;2023-06-14T07:25:38;10.00;;;3.03;;
43813;SDS011;29669;55.706;37.656;2023-06-14T07:28:07;9.82;;;3.80;;
43813;SDS011;29669;55.706;37.656;2023-06-14T07:30:35;5.85;;;2.88;;
43813;SDS011;29669;55.706;37.656;2023-06-14T07:33:02;6.57;;;4.10;;
43813;SDS011;29669;55.706;37.656;2023-06-14T07:35:30;4.75;;;3.42;;
43813;SDS011;29669;55.706;37.656;2023-06-14T07:37:58;10.68;;;3.47;;
43813;SDS011;29669;55.706;37.656;2023-06-14T07:40:26;7.70;;;3.83;;
43813;SDS011;29669;55.706;37.656;2023-06-14T07:42:54;4.97;;;2.88;;
43813;SDS011;29669;55.706;37.656;2023-06-14T07:45:22;11.63;;;3.90;;
43813;SDS011;29669;55.706;37.656;2023-06-14T07:47:50;9.45;;;3.58;;
43813;SDS011;29669;55.706;37.656;2023-06-14T07:50:19;3.90;;;3.00;;
43813;SDS011;29669;55.706;37.656;2023-06-14T07:52:46;5.72;;;2.95;;
43813;SDS011;29669;55.706;37.656;2023-06-14T07:55:15;5.57;;;2.97;;
43813;SDS011;29669;55.706;37.656;2023-06-14T07:57:43;6.35;;;3.15;;
43813;SDS011;29669;55.706;37.656;2023-06-14T08:00:11;6.13;;;2.90;;
43813;SDS011;29669;55.706;37.656;2023-06-14T08:02:43;4.47;;;3.10;;
43813;SDS011;29669;55.706;37.656;2023-06-14T08:05:11;6.05;;;3.03;;
43813;SDS011;29669;55.706;37.656;2023-06-14T08:07:39;10.43;;;3.63;;
43813;SDS011;29669;55.706;37.656;2023-06-14T08:10:07;8.32;;;3.58;;
43813;SDS011;29669;55.706;37.656;2023-06-14T08:12:36;12.15;;;3.88;;
43813;SDS011;29669;55.706;37.656;2023-06-14T08:15:04;6.53;;;3.30;;
43813;SDS011;29669;55.706;37.656;2023-06-14T08:17:40;5.80;;;3.15;;
43813;SDS011;29669;55.706;37.656;2023-06-14T08:20:10;4.00;;;2.75;;
43813;SDS011;29669;55.706;37.656;2023-06-14T08:22:38;10.38;;;4.45;;
43813;SDS011;29669;55.706;37.656;2023-06-14T08:25:07;10.15;;;4.57;;
43813;SDS011;29669;55.706;37.656;2023-06-14T08:27:36;6.72;;;3.35;;
43813;SDS011;29669;55.706;37.656;2023-06-14T08:30:04;5.40;;;3.05;;
43813;SDS011;29669;55.706;37.656;2023-06-14T08:32:32;6.13;;;3.42;;
43813;SDS011;29669;55.706;37.656;2023-06-14T08:35:00;8.50;;;4.10;;
43813;SDS011;29669;55.706;37.656;2023-06-14T08:37:45;6.28;;;3.45;;
43813;SDS011;29669;55.706;37.656;2023-06-14T08:40:21;9.25;;;4.00;;
43813;SDS011;29669;55.706;37.656;2023-06-14T08:42:51;10.55;;;4.70;;
43813;SDS011;29669;55.706;37.656;2023-06-14T08:45:20;14.23;;;5.05;;
43813;SDS011;29669;55.706;37.656;2023-06-14T08:47:52;6.35;;;3.72;;
43813;SDS011;29669;55.706;37.656;2023-06-14T08:50:26;8.80;;;3.40;;
43813;SDS011;29669;55.706;37.656;2023-06-14T08:52:58;9.70;;;4.03;;
43813;SDS011;29669;55.706;37.656;2023-06-14T08:55:29;6.93;;;3.38;;
43813;SDS011;29669;55.706;37.656;2023-06-14T08:58:01;5.05;;;3.40;;
43813;SDS011;29669;55.706;37.656;2023-06-14T09:00:31;5.68;;;3.83;;
43813;SDS011;29669;55.706;37.656;2023-06-14T09:03:00;9.82;;;3.70;;
43813;SDS011;29669;55.706;37.656;2023-06-14T09:05:28;7.40;;;3.60;;
43813;SDS011;29669;55.706;37.656;2023-06-14T09:07:56;6.80;;;3.55;;
43813;SDS011;29669;55.706;37.656;2023-06-14T09:10:32;8.82;;;3.47;;
43813;SDS011;29669;55.706;37.656;2023-06-14T09:13:01;11.60;;;3.53;;
43813;SDS011;29669;55.706;37.656;2023-06-14T09:15:30;6.65;;;3.58;;
43813;SDS011;29669;55.706;37.656;2023-06-14T09:18:00;6.63;;;3.45;;
43813;SDS011;29669;55.706;37.656;2023-06-14T09:20:29;8.15;;;3.38;;
43813;SDS011;29669;55.706;37.656;2023-06-14T09:22:58;5.07;;;3.25;;
43813;SDS011;29669;55.706;37.656;2023-06-14T09:25:28;5.20;;;3.28;;
43813;SDS011;29669;55.706;37.656;2023-06-14T09:28:09;6.47;;;3.70;;
43813;SDS011;29669;55.706;37.656;2023-06-14T09:30:37;10.35;;;4.35;;
43813;SDS011;29669;55.706;37.656;2023-06-14T09:33:05;5.13;;;3.47;;
43813;SDS011;29669;55.706;37.656;2023-06-14T09:35:34;6.03;;;3.58;;
43813;SDS011;29669;55.706;37.656;2023-06-14T09:38:02;8.27;;;3.92;;
43813;SDS011;29669;55.706;37.656;2023-06-14T09:40:33;8.02;;;3.60;;
43813;SDS011;29669;55.706;37.656;2023-06-14T09:43:06;5.22;;;3.72;;
43813;SDS011;29669;55.706;37.656;2023-06-14T09:45:39;8.50;;;3.78;;
43813;SDS011;29669;55.706;37.656;2023-06-14T09:48:07;9.30;;;4.82;;
43813;SDS011;29669;55.706;37.656;2023-06-14T09:50:39;9.82;;;3.95;;
43813;SDS011;29669;55.706;37.656;2023-06-14T09:53:07;7.47;;;4.72;;
43813;SDS011;29669;55.706;37.656;2023-06-14T09:55:39;8.30;;;3.78;;
43813;SDS011;29669;55.706;37.656;2023-06-14T09:58:09;5.35;;;3.72;;
43813;SDS011;29669;55.706;37.656;2023-06-14T10:00:39;7.78;;;4.38;;
43813;SDS011;29669;55.706;37.656;2023-06-14T10:05:44;13.18;;;4.80;;
43813;SDS011;29669;55.706;37.656;2023-06-14T10:08:15;5.03;;;3.35;;
43813;SDS011;29669;55.706;37.656;2023-06-14T10:10:45;9.25;;;3.67;;
43813;SDS011;29669;55.706;37.656;2023-06-14T10:13:13;7.53;;;4.38;;
43813;SDS011;29669;55.706;37.656;2023-06-14T10:15:53;7.10;;;3.03;;
43813;SDS011;29669;55.706;37.656;2023-06-14T10:18:30;4.90;;;3.40;;
43813;SDS011;29669;55.706;37.656;2023-06-14T10:21:13;12.68;;;3.70;;
43813;SDS011;29669;55.706;37.656;2023-06-14T10:23:48;10.50;;;3.75;;
43813;SDS011;29669;55.706;37.656;2023-06-14T10:26:22;5.45;;;3.70;;
43813;SDS011;29669;55.706;37.656;2023-06-14T10:29:08;7.43;;;3.65;;
43813;SDS011;29669;55.706;37.656;2023-06-14T10:31:49;5.40;;;3.58;;
43813;SDS011;29669;55.706;37.656;2023-06-14T10:34:22;4.93;;;3.25;;
43813;SDS011;29669;55.706;37.656;2023-06-14T10:37:01;8.25;;;3.80;;
43813;SDS011;29669;55.706;37.656;2023-06-14T10:39:41;9.55;;;3.88;;
43813;SDS011;29669;55.706;37.656;2023-06-14T10:42:13;7.45;;;3.65;;
43813;SDS011;29669;55.706;37.656;2023-06-14T10:44:43;5.43;;;3.53;;
43813;SDS011;29669;55.706;37.656;2023-06-14T10:49:51;3.80;;;3.30;;
43813;SDS011;29669;55.706;37.656;2023-06-14T10:52:21;6.22;;;3.65;;
43813;SDS011;29669;55.706;37.656;2023-06-14T10:55:07;5.75;;;3.30;;
43813;SDS011;29669;55.706;37.656;2023-06-14T10:57:55;4.60;;;3.45;;
43813;SDS011;29669;55.706;37.656;2023-06-14T11:00:27;8.15;;;4.00;;
43813;SDS011;29669;55.706;37.656;2023-06-14T11:11:15;10.75;;;3.53;;
43813;SDS011;29669;55.706;37.656;2023-06-14T11:13:44;4.15;;;3.42;;
43813;SDS011;29669;55.706;37.656;2023-06-14T11:16:16;6.78;;;3.60;;
43813;SDS011;29669;55.706;37.656;2023-06-14T11:18:46;3.47;;;3.15;;
43813;SDS011;29669;55.706;37.656;2023-06-14T11:21:18;7.50;;;3.88;;
43813;SDS011;29669;55.706;37.656;2023-06-14T11:23:52;7.82;;;4.43;;
43813;SDS011;29669;55.706;37.656;2023-06-14T11:26:28;4.53;;;3.38;;
43813;SDS011;29669;55.706;37.656;2023-06-14T11:28:58;6.22;;;4.00;;
43813;SDS011;29669;55.706;37.656;2023-06-14T11:31:28;5.57;;;3.22;;
43813;SDS011;29669;55.706;37.656;2023-06-14T11:33:57;6.28;;;3.47;;
43813;SDS011;29669;55.706;37.656;2023-06-14T11:36:27;7.57;;;3.28;;
43813;SDS011;29669;55.706;37.656;2023-06-14T11:39:01;8.10;;;2.87;;
43813;SDS011;29669;55.706;37.656;2023-06-14T11:41:38;12.18;;;6.25;;
43813;SDS011;29669;55.706;37.656;2023-06-14T11:44:07;5.20;;;3.28;;
43813;SDS011;29669;55.706;37.656;2023-06-14T11:46:35;11.20;;;3.60;;
43813;SDS011;29669;55.706;37.656;2023-06-14T11:49:03;7.47;;;3.80;;
43813;SDS011;29669;55.706;37.656;2023-06-14T11:51:32;6.78;;;3.65;;
43813;SDS011;29669;55.706;37.656;2023-06-14T11:54:04;4.55;;;3.22;;
43813;SDS011;29669;55.706;37.656;2023-06-14T11:56:33;7.45;;;3.83;;
43813;SDS011;29669;55.706;37.656;2023-06-14T11:59:03;4.43;;;3.60;;
43813;SDS011;29669;55.706;37.656;2023-06-14T12:01:35;6.38;;;3.47;;
43813;SDS011;29669;55.706;37.656;2023-06-14T12:04:06;6.72;;;3.00;;
43813;SDS011;29669;55.706;37.656;2023-06-14T12:06:34;4.57;;;3.30;;
43813;SDS011;29669;55.706;37.656;2023-06-14T12:09:07;7.00;;;3.78;;
43813;SDS011;29669;55.706;37.656;2023-06-14T12:11:40;4.68;;;3.38;;
43813;SDS011;29669;55.706;37.656;2023-06-14T12:14:08;6.50;;;3.30;;
43813;SDS011;29669;55.706;37.656;2023-06-14T12:16:38;10.63;;;4.55;;
43813;SDS011;29669;55.706;37.656;2023-06-14T12:19:15;7.47;;;4.10;;
43813;SDS011;29669;55.706;37.656;2023-06-14T12:21:47;7.18;;;3.17;;
43813;SDS011;29669;55.706;37.656;2023-06-14T12:24:19;3.97;;;3.20;;
43813;SDS011;29669;55.706;37.656;2023-06-14T12:26:47;7.47;;;3.60;;
43813;SDS011;29669;55.706;37.656;2023-06-14T12:29:15;5.75;;;3.25;;
43813;SDS011;29669;55.706;37.656;2023-06-14T12:31:43;6.47;;;3.45;;
43813;SDS011;29669;55.706;37.656;2023-06-14T12:34:10;6.30;;;3.25;;
43813;SDS011;29669;55.706;37.656;2023-06-14T12:36:38;10.43;;;3.45;;
43813;SDS011;29669;55.706;37.656;2023-06-14T12:39:12;4.63;;;3.65;;
43813;SDS011;29669;55.706;37.656;2023-06-14T12:41:40;5.57;;;3.40;;
43813;SDS011;29669;55.706;37.656;2023-06-14T12:44:11;6.50;;;3.38;;
43813;SDS011;29669;55.706;37.656;2023-06-14T12:46:40;6.80;;;3.08;;
43813;SDS011;29669;55.706;37.656;2023-06-14T12:49:11;8.40;;;3.72;;
43813;SDS011;29669;55.706;37.656;2023-06-14T12:51:39;8.57;;;3.63;;
43813;SDS011;29669;55.706;37.656;2023-06-14T12:54:08;8.90;;;3.55;;
43813;SDS011;29669;55.706;37.656;2023-06-14T12:56:36;5.43;;;3.10;;
43813;SDS011;29669;55.706;37.656;2023-06-14T12:59:03;6.75;;;4.47;;
43813;SDS011;29669;55.706;37.656;2023-06-14T13:01:31;4.25;;;3.35;;
43813;SDS011;29669;55.706;37.656;2023-06-14T13:03:59;9.57;;;4.25;;
43813;SDS011;29669;55.706;37.656;2023-06-14T13:06:27;5.78;;;3.42;;
43813;SDS011;29669;55.706;37.656;2023-06-14T13:08:56;4.38;;;2.75;;
43813;SDS011;29669;55.706;37.656;2023-06-14T13:11:27;6.40;;;2.90;;
43813;SDS011;29669;55.706;37.656;2023-06-14T13:13:55;12.00;;;4.47;;
43813;SDS011;29669;55.706;37.656;2023-06-14T13:16:23;6.35;;;4.00;;
43813;SDS011;29669;55.706;37.656;2023-06-14T13:18:51;8.15;;;3.97;;
43813;SDS011;29669;55.706;37.656;2023-06-14T13:21:19;4.65;;;3.90;;
43813;SDS011;29669;55.706;37.656;2023-06-14T13:23:46;11.07;;;5.03;;
43813;SDS011;29669;55.706;37.656;2023-06-14T13:26:14;8.98;;;3.90;;
43813;SDS011;29669;55.706;37.656;2023-06-14T13:28:42;7.70;;;4.72;;
43813;SDS011;29669;55.706;37.656;2023-06-14T13:31:10;7.75;;;4.47;;
43813;SDS011;29669;55.706;37.656;2023-06-14T13:33:41;5.90;;;3.60;;
43813;SDS011;29669;55.706;37.656;2023-06-14T13:36:09;4.38;;;3.45;;
43813;SDS011;29669;55.706;37.656;2023-06-14T13:38:37;8.32;;;3.95;;
43813;SDS011;29669;55.706;37.656;2023-06-14T13:41:05;8.77;;;4.18;;
43813;SDS011;29669;55.706;37.656;2023-06-14T13:43:33;8.88;;;6.13;;
43813;SDS011;29669;55.706;37.656;2023-06-14T13:46:00;6.50;;;3.20;;
43813;SDS011;29669;55.706;37.656;2023-06-14T13:48:28;4.82;;;3.65;;
43813;SDS011;29669;55.706;37.656;2023-06-14T13:50:56;11.57;;;4.50;;
43813;SDS011;29669;55.706;37.656;2023-06-14T13:53:24;7.22;;;3.85;;
43813;SDS011;29669;55.706;37.656;2023-06-14T13:55:52;4.32;;;3.15;;
43813;SDS011;29669;55.706;37.656;2023-06-14T13:58:20;3.83;;;3.38;;
43813;SDS011;29669;55.706;37.656;2023-06-14T14:00:47;5.47;;;3.58;;
43813;SDS011;29669;55.706;37.656;2023-06-14T14:03:15;9.18;;;4.25;;
43813;SDS011;29669;55.706;37.656;2023-06-14T14:05:43;8.95;;;4.70;;
43813;SDS011;29669;55.706;37.656;2023-06-14T14:08:10;5.15;;;3.30;;
43813;SDS011;29669;55.706;37.656;2023-06-14T14:10:38;10.20;;;4.88;;
43813;SDS011;29669;55.706;37.656;2023-06-14T14:13:06;9.13;;;3.35;;
43813;SDS011;29669;55.706;37.656;2023-06-14T14:15:33;6.95;;;3.35;;
43813;SDS011;29669;55.706;37.656;2023-06-14T14:18:02;11.30;;;5.68;;
43813;SDS011;29669;55.706;37.656;2023-06-14T14:20:30;7.38;;;4.07;;
43813;SDS011;29669;55.706;37.656;2023-06-14T14:22:59;4.82;;;3.80;;
43813;SDS011;29669;55.706;37.656;2023-06-14T14:25:26;9.43;;;4.47;;
43813;SDS011;29669;55.706;37.656;2023-06-14T14:27:54;5.03;;;3.30;;
43813;SDS011;29669;55.706;37.656;2023-06-14T14:30:22;15.70;;;4.15;;
43813;SDS011;29669;55.706;37.656;2023-06-14T14:32:51;8.05;;;3.90;;
43813;SDS011;29669;55.706;37.656;2023-06-14T14:35:20;3.75;;;2.85;;
43813;SDS011;29669;55.706;37.656;2023-06-14T14:37:50;3.53;;;3.20;;
43813;SDS011;29669;55.706;37.656;2023-06-14T14:40:18;3.40;;;2.78;;
43813;SDS011;29669;55.706;37.656;2023-06-14T14:42:45;5.30;;;3.13;;
43813;SDS011;29669;55.706;37.656;2023-06-14T14:45:13;7.72;;;4.28;;
43813;SDS011;29669;55.706;37.656;2023-06-14T14:47:41;5.57;;;4.40;;
43813;SDS011;29669;55.706;37.656;2023-06-14T14:50:09;8.10;;;3.40;;
43813;SDS011;29669;55.706;37.656;2023-06-14T14:52:37;2.95;;;2.63;;
43813;SDS011;29669;55.706;37.656;2023-06-14T14:55:05;10.38;;;4.22;;
43813;SDS011;29669;55.706;37.656;2023-06-14T14:57:33;10.57;;;4.80;;
43813;SDS011;29669;55.706;37.656;2023-06-14T15:00:01;5.50;;;2.88;;